Time;durP1;ratioP1;P1;durP2;ratioP2;P2;SDS_P1;SDS_P2;PMS_P1;PMS_P2;Temp;Humidity;BMP_temperature;BMP_pressure;BME280_temperature;BME280_humidity;BME280_pressure;Samples;Min_cycle;Max_cycle;Signal;HPM_P1;HPM_P2
2022/03/04 00:00:04;;;;;;;23.73;13.60;;;;;;;1.23;67.89;101899.72;5062267;28;20120;-77
2022/03/04 00:02:29;;;;;;;29.60;13.80;;;;;;;1.19;66.81;101905.59;5047912;28;20035;-77
2022/03/04 00:04:54;;;;;;;25.17;13.75;;;;;;;1.15;66.92;101902.91;5052684;28;20103;-77
2022/03/04 00:07:20;;;;;;;24.88;13.23;;;;;;;1.15;67.60;101912.31;5061739;28;20119;-77
2022/03/04 00:09:45;;;;;;;27.13;13.73;;;;;;;1.16;67.04;101904.66;5066745;28;20036;-77
2022/03/04 00:12:10;;;;;;;24.15;13.35;;;;;;;1.11;67.30;101901.09;5051567;28;20453;-77
2022/03/04 00:14:36;;;;;;;24.50;13.95;;;;;;;1.14;67.53;101905.41;5050611;28;20021;-77
2022/03/04 00:17:01;;;;;;;25.65;13.27;;;;;;;1.10;68.39;101909.59;5054537;28;20033;-77
2022/03/04 00:19:26;;;;;;;23.52;13.77;;;;;;;1.10;67.76;101911.28;5067969;28;20032;-77
2022/03/04 00:21:51;;;;;;;24.08;13.45;;;;;;;1.08;67.73;101920.63;5068909;28;20484;-76
2022/03/04 00:24:19;;;;;;;28.25;14.02;;;;;;;1.07;68.69;101919.75;5063660;28;20040;-77
2022/03/04 00:26:46;;;;;;;22.77;12.75;;;;;;;1.03;68.25;101927.31;5067552;28;20039;-77
2022/03/04 00:29:12;;;;;;;24.65;13.85;;;;;;;0.99;68.61;101923.78;5061568;28;20032;-77
2022/03/04 00:31:38;;;;;;;24.75;13.82;;;;;;;0.92;69.02;101914.16;5066346;28;20036;-77
2022/03/04 00:34:07;;;;;;;25.73;13.45;;;;;;;0.92;69.70;101926.97;5070785;28;20033;-77
2022/03/04 00:36:35;;;;;;;24.05;14.20;;;;;;;0.87;69.21;101926.81;5069484;28;20060;-76
2022/03/04 00:39:00;;;;;;;27.38;13.85;;;;;;;0.85;68.98;101931.03;5069693;28;20074;-77
2022/03/04 00:41:25;;;;;;;26.20;14.23;;;;;;;0.82;69.12;101927.50;5054419;28;20029;-77
2022/03/04 00:43:51;;;;;;;25.75;14.00;;;;;;;0.78;69.78;101930.75;5053575;28;20377;-77
2022/03/04 00:46:17;;;;;;;28.27;14.25;;;;;;;0.73;69.39;101932.31;5053245;28;20029;-77
2022/03/04 00:48:43;;;;;;;25.45;13.98;;;;;;;0.72;70.16;101941.72;5059741;28;20503;-77
2022/03/04 00:51:12;;;;;;;24.48;14.23;;;;;;;0.67;69.74;101938.97;5057501;28;20025;-77
2022/03/04 00:53:38;;;;;;;23.15;13.20;;;;;;;0.64;69.76;101930.28;5064683;28;20029;-77
2022/03/04 00:56:06;;;;;;;26.65;14.25;;;;;;;0.63;70.02;101933.69;5054801;28;20104;-77
2022/03/04 00:58:32;;;;;;;28.33;13.98;;;;;;;0.57;70.42;101936.91;5057820;28;20036;-77
2022/03/04 01:00:57;;;;;;;26.05;13.85;;;;;;;0.53;70.44;101940.19;5062308;28;20594;-77
2022/03/04 01:03:22;;;;;;;24.70;14.65;;;;;;;0.50;70.03;101940.09;5070166;28;20379;-77
2022/03/04 01:05:48;;;;;;;27.90;14.07;;;;;;;0.45;70.63;101944.16;5062635;28;20052;-77
2022/03/04 01:08:13;;;;;;;28.15;15.13;;;;;;;0.40;71.00;101941.47;5057055;28;20038;-77
2022/03/04 01:10:38;;;;;;;26.88;14.48;;;;;;;0.39;71.70;101943.94;5065281;28;20029;-77
2022/03/04 01:13:04;;;;;;;26.33;14.88;;;;;;;0.33;71.07;101939.50;5071128;28;20033;-76
2022/03/04 01:15:29;;;;;;;25.48;14.48;;;;;;;0.28;71.50;101941.00;5070243;28;20106;-77
2022/03/04 01:17:55;;;;;;;26.10;14.18;;;;;;;0.26;71.84;101940.06;5056235;28;20365;-77
2022/03/04 01:20:21;;;;;;;27.70;15.02;;;;;;;0.25;72.02;101950.28;5068202;28;20035;-77
2022/03/04 01:22:46;;;;;;;27.63;14.82;;;;;;;0.21;72.55;101952.72;5055504;28;20029;-77
2022/03/04 01:25:12;;;;;;;29.45;15.18;;;;;;;0.14;71.87;101945.66;5061955;28;20028;-77
2022/03/04 01:27:37;;;;;;;26.50;15.35;;;;;;;0.12;73.75;101938.69;5057862;28;20024;-76
2022/03/04 01:30:05;;;;;;;27.73;14.80;;;;;;;0.06;73.12;101941.91;5070132;28;20068;-77
2022/03/04 01:32:30;;;;;;;24.95;14.55;;;;;;;-0.06;73.44;101926.09;5060701;28;20124;-76
2022/03/04 01:34:55;;;;;;;29.40;15.27;;;;;;;-0.02;73.34;101930.50;5056021;28;20549;-76
2022/03/04 01:37:21;;;;;;;26.67;14.95;;;;;;;-0.08;74.92;101940.53;5072235;28;20036;-76
2022/03/04 01:39:46;;;;;;;28.80;14.88;;;;;;;-0.17;74.56;101933.34;5058415;28;20029;-77
2022/03/04 01:42:11;;;;;;;26.92;15.07;;;;;;;-0.19;74.43;101927.31;5068318;28;20031;-76
2022/03/04 01:44:37;;;;;;;28.92;15.05;;;;;;;-0.26;74.91;101921.09;5072556;28;20523;-77
2022/03/04 01:47:03;;;;;;;29.48;15.55;;;;;;;-0.25;74.97;101927.09;5055241;28;20538;-76
2022/03/04 01:49:28;;;;;;;30.77;15.52;;;;;;;-0.28;75.57;101930.41;5068102;28;20043;-77
2022/03/04 01:51:53;;;;;;;25.88;15.38;;;;;;;-0.30;75.23;101928.59;5060723;28;20024;-77
2022/03/04 01:54:19;;;;;;;30.45;16.08;;;;;;;-0.32;76.14;101915.72;5065652;28;20033;-76
2022/03/04 01:56:44;;;;;;;31.33;15.75;;;;;;;-0.38;75.41;101922.31;5069313;28;20074;-76
2022/03/04 01:59:09;;;;;;;28.17;15.02;;;;;;;-0.44;75.37;101911.81;5071528;28;20420;-76
2022/03/04 02:01:35;;;;;;;31.13;15.55;;;;;;;-0.41;75.45;101925.63;5062059;28;20068;-77
2022/03/04 02:04:01;;;;;;;27.92;15.70;;;;;;;-0.43;76.15;101931.50;5053577;28;20074;-76
2022/03/04 02:06:26;;;;;;;29.27;15.82;;;;;;;-0.46;75.81;101932.25;5056855;28;20035;-76
2022/03/04 02:08:52;;;;;;;28.33;15.27;;;;;;;-0.47;76.52;101941.63;5057603;28;20025;-77
2022/03/04 02:11:17;;;;;;;24.05;14.90;;;;;;;-0.50;76.15;101944.06;5053608;28;20123;-76
2022/03/04 02:13:45;;;;;;;29.10;16.33;;;;;;;-0.56;76.33;101937.81;5053784;28;20036;-77
2022/03/04 02:16:21;;;;;;;31.92;16.10;;;;;;;-0.62;76.46;101930.78;5059007;28;20056;-76
2022/03/04 02:18:47;;;;;;;27.73;15.43;;;;;;;-0.64;76.84;101939.22;5071667;28;20480;-76
2022/03/04 02:21:13;;;;;;;28.67;15.57;;;;;;;-0.65;77.63;101937.47;5056593;28;20221;-77
2022/03/04 02:23:39;;;;;;;28.58;15.60;;;;;;;-0.73;77.58;101927.78;5053366;28;20025;-77
2022/03/04 02:26:05;;;;;;;31.42;17.05;;;;;;;-0.72;77.13;101933.78;5055657;28;20400;-76
2022/03/04 02:28:30;;;;;;;29.00;16.70;;;;;;;-0.78;77.66;101921.63;5060331;28;20058;-76
2022/03/04 02:30:56;;;;;;;30.90;17.10;;;;;;;-0.79;77.65;101922.41;5057572;28;20087;-76
2022/03/04 02:33:21;;;;;;;30.50;16.00;;;;;;;-0.84;77.29;101920.50;5056490;28;20029;-76
2022/03/04 02:35:47;;;;;;;31.65;16.83;;;;;;;-0.85;78.52;101926.41;5063740;28;20024;-76
2022/03/04 02:38:12;;;;;;;30.98;16.85;;;;;;;-0.93;78.05;101913.31;5052967;28;20476;-76
2022/03/04 02:40:37;;;;;;;30.00;17.05;;;;;;;-0.92;78.43;101916.75;5061161;28;20038;-77
2022/03/04 02:43:03;;;;;;;33.28;18.25;;;;;;;-0.94;78.50;101914.13;5062424;28;20025;-76
2022/03/04 02:45:29;;;;;;;31.90;17.13;;;;;;;-0.96;78.89;101911.50;5037461;28;20473;-77
2022/03/04 02:47:54;;;;;;;31.63;17.77;;;;;;;-0.94;78.14;101924.38;5033092;28;20156;-76
2022/03/04 02:50:19;;;;;;;35.70;17.80;;;;;;;-0.96;78.77;101919.19;5040195;28;20166;-76
2022/03/04 02:52:45;;;;;;;33.40;17.02;;;;;;;-0.97;78.45;101907.19;5052324;28;20068;-76
2022/03/04 02:55:11;;;;;;;41.55;18.77;;;;;;;-0.99;78.79;101913.06;5036907;28;20041;-76
2022/03/04 02:57:43;;;;;;;35.17;17.30;;;;;;;-1.03;78.79;101908.63;5050980;28;20412;-76
2022/03/04 03:00:09;;;;;;;33.88;18.00;;;;;;;-1.07;79.33;101914.44;5040828;28;20492;-76
2022/03/04 03:02:34;;;;;;;31.92;17.33;;;;;;;-1.12;80.19;101905.69;5046698;28;20116;-76
2022/03/04 03:05:00;;;;;;;33.22;18.15;;;;;;;-1.14;79.48;101905.66;5044833;28;20477;-76
2022/03/04 03:07:25;;;;;;;34.88;17.58;;;;;;;-1.13;79.77;101912.50;5052062;28;20457;-76
2022/03/04 03:09:50;;;;;;;33.25;18.15;;;;;;;-1.14;79.52;101915.88;5052885;28;20095;-76
2022/03/04 03:12:16;;;;;;;34.05;18.38;;;;;;;-1.15;79.97;101913.25;5054846;28;20103;-76
2022/03/04 03:14:41;;;;;;;36.13;18.15;;;;;;;-1.17;79.92;101917.44;5062685;28;20036;-76
2022/03/04 03:17:06;;;;;;;33.70;18.45;;;;;;;-1.18;79.69;101921.66;5062797;28;20089;-76
2022/03/04 03:19:31;;;;;;;36.63;18.77;;;;;;;-1.24;80.41;101912.06;5062247;28;20033;-76
2022/03/04 03:21:57;;;;;;;38.92;19.20;;;;;;;-1.24;79.82;101914.63;5053257;28;20396;-76
2022/03/04 03:24:22;;;;;;;34.45;18.60;;;;;;;-1.27;80.38;101895.72;5067259;28;20064;-76
2022/03/04 03:26:47;;;;;;;31.98;17.40;;;;;;;-1.28;80.52;101912.72;5059874;28;20047;-77
2022/03/04 03:29:13;;;;;;;37.10;18.65;;;;;;;-1.27;80.15;101919.63;5054905;28;20033;-76
2022/03/04 03:31:38;;;;;;;34.75;18.92;;;;;;;-1.30;80.02;101909.25;5067028;28;20037;-77
2022/03/04 03:34:03;;;;;;;33.88;18.60;;;;;;;-1.30;80.56;101908.38;5063550;28;20039;-76
2022/03/04 03:36:28;;;;;;;33.17;18.13;;;;;;;-1.35;80.10;101913.28;5057359;28;20032;-76
2022/03/04 03:38:54;;;;;;;34.13;18.27;;;;;;;-1.40;80.22;101912.22;5069414;28;20032;-76
2022/03/04 03:41:19;;;;;;;32.80;18.52;;;;;;;-1.41;80.54;101918.13;5060417;28;20036;-76
2022/03/04 03:43:44;;;;;;;33.58;18.17;;;;;;;-1.38;80.57;101920.81;5071847;28;20055;-76
2022/03/04 03:46:10;;;;;;;36.85;18.17;;;;;;;-1.38;80.72;101925.06;5056756;28;20066;-76
2022/03/04 03:48:39;;;;;;;35.38;19.48;;;;;;;-1.40;80.35;101916.47;5067191;28;20037;-77
2022/03/04 03:51:04;;;;;;;34.72;17.75;;;;;;;-1.46;80.38;101919.66;5060413;28;20021;-76
2022/03/04 03:53:29;;;;;;;32.08;17.67;;;;;;;-1.45;80.86;101921.38;5064836;28;20040;-77
2022/03/04 03:55:55;;;;;;;33.35;17.85;;;;;;;-1.48;80.36;101916.13;5046004;28;20119;-76
2022/03/04 03:58:20;;;;;;;36.10;17.80;;;;;;;-1.47;80.45;101920.47;5051284;28;20029;-76
2022/03/04 04:00:45;;;;;;;33.65;18.30;;;;;;;-1.49;80.97;101919.50;5055202;28;20473;-76
2022/03/04 04:03:10;;;;;;;36.03;17.90;;;;;;;-1.50;81.21;101922.88;5063125;28;20024;-76
2022/03/04 04:05:36;;;;;;;35.28;18.38;;;;;;;-1.49;80.84;101930.59;5061578;28;20041;-77
2022/03/04 04:08:01;;;;;;;32.88;17.38;;;;;;;-1.53;80.62;101927.88;5067297;28;20040;-76
2022/03/04 04:10:27;;;;;;;35.97;19.00;;;;;;;-1.53;81.00;101935.53;5063296;28;20021;-76
2022/03/04 04:12:52;;;;;;;33.60;18.25;;;;;;;-1.55;80.92;101932.03;5056167;28;20108;-77
2022/03/04 04:15:18;;;;;;;32.78;17.55;;;;;;;-1.59;80.86;101922.50;5067137;28;20131;-76
2022/03/04 04:17:44;;;;;;;34.67;18.38;;;;;;;-1.57;81.20;101938.75;5055271;28;20040;-76
2022/03/04 04:20:10;;;;;;;38.08;18.83;;;;;;;-1.61;81.33;101936.88;5060279;28;20039;-76
2022/03/04 04:22:35;;;;;;;34.78;18.25;;;;;;;-1.67;81.75;101933.25;5058245;28;20028;-77
2022/03/04 04:25:00;;;;;;;34.13;17.70;;;;;;;-1.65;81.93;101946.09;5067506;28;20017;-76
2022/03/04 04:27:26;;;;;;;31.92;17.92;;;;;;;-1.68;81.86;101939.16;5045902;28;20108;-76
2022/03/04 04:29:51;;;;;;;33.80;18.45;;;;;;;-1.73;81.87;101940.66;5051132;28;20473;-76
2022/03/04 04:32:16;;;;;;;34.92;18.48;;;;;;;-1.73;82.12;101940.66;5051237;28;20055;-77
2022/03/04 04:34:42;;;;;;;34.00;18.60;;;;;;;-1.72;82.25;101938.97;5051673;28;20025;-76
2022/03/04 04:37:07;;;;;;;37.78;19.10;;;;;;;-1.72;82.75;101941.53;5060732;28;20441;-76
2022/03/04 04:39:32;;;;;;;35.72;18.63;;;;;;;-1.68;82.38;101944.28;5052457;28;20074;-76
2022/03/04 04:41:58;;;;;;;36.70;17.80;;;;;;;-1.63;82.04;101953.84;5054897;28;20028;-76
2022/03/04 04:44:23;;;;;;;35.45;19.00;;;;;;;-1.61;81.93;101954.78;5052811;28;20491;-77
2022/03/04 04:46:48;;;;;;;35.95;18.83;;;;;;;-1.62;82.08;101955.59;5061301;28;20036;-77
2022/03/04 04:49:14;;;;;;;33.45;18.13;;;;;;;-1.65;82.30;101951.22;5064461;28;20385;-77
2022/03/04 04:51:39;;;;;;;35.45;19.20;;;;;;;-1.73;82.65;101948.31;5063475;28;20033;-77
2022/03/04 04:54:04;;;;;;;34.85;18.75;;;;;;;-1.67;81.98;101952.81;5059031;28;20064;-76
2022/03/04 04:56:30;;;;;;;35.28;19.42;;;;;;;-1.64;81.93;101952.94;5057298;28;20438;-76
2022/03/04 04:58:55;;;;;;;32.65;17.70;;;;;;;-1.61;82.03;101952.22;5056413;28;20037;-76
2022/03/04 05:01:20;;;;;;;40.08;18.73;;;;;;;-1.61;81.99;101958.19;5067118;28;20051;-77
2022/03/04 05:03:45;;;;;;;37.08;19.38;;;;;;;-1.67;81.92;101940.94;5059224;28;20516;-76
2022/03/04 05:06:11;;;;;;;36.92;19.15;;;;;;;-1.66;82.40;101944.34;5055716;28;20033;-76
2022/03/04 05:08:36;;;;;;;35.80;19.55;;;;;;;-1.70;81.87;101942.44;5055843;28;20032;-76
2022/03/04 05:11:01;;;;;;;35.58;19.25;;;;;;;-1.70;82.43;101945.91;5062593;28;20029;-76
2022/03/04 05:13:27;;;;;;;35.88;19.05;;;;;;;-1.73;82.50;101945.78;5057436;28;20118;-76
2022/03/04 05:15:52;;;;;;;33.08;18.75;;;;;;;-1.77;82.38;101946.41;5067107;28;20052;-76
2022/03/04 05:18:18;;;;;;;35.90;18.38;;;;;;;-1.83;82.55;101945.28;5062208;28;20051;-76
2022/03/04 05:20:43;;;;;;;34.35;18.10;;;;;;;-1.88;83.07;101948.50;5072868;28;20037;-77
2022/03/04 05:23:09;;;;;;;35.67;19.23;;;;;;;-1.88;82.77;101947.63;5057514;28;20025;-76
2022/03/04 05:25:34;;;;;;;36.95;19.15;;;;;;;-1.90;83.21;101949.25;5054161;28;20543;-76
2022/03/04 05:28:00;;;;;;;37.63;19.52;;;;;;;-1.94;82.39;101953.34;5065062;28;20091;-76
2022/03/04 05:30:26;;;;;;;32.22;18.10;;;;;;;-1.95;83.18;101955.84;5053519;28;20472;-76
2022/03/04 05:32:51;;;;;;;42.22;18.65;;;;;;;-2.02;82.50;101948.72;5068637;28;20031;-76
2022/03/04 05:35:16;;;;;;;37.53;18.80;;;;;;;-2.01;83.09;101945.34;5067673;28;20087;-76
2022/03/04 05:37:42;;;;;;;36.28;18.33;;;;;;;-1.99;83.16;101953.97;5053563;28;20047;-77
2022/03/04 05:40:09;;;;;;;34.75;19.15;;;;;;;-2.02;83.40;101952.13;5067242;28;20039;-76
2022/03/04 05:42:34;;;;;;;34.17;19.13;;;;;;;-2.05;84.06;101959.66;5065097;28;20037;-76
2022/03/04 05:45:00;;;;;;;36.20;18.30;;;;;;;-2.05;83.44;101969.00;5059050;28;20083;-76
2022/03/04 05:47:25;;;;;;;36.28;19.00;;;;;;;-2.06;84.39;101970.69;5053753;28;20068;-77
2022/03/04 05:49:51;;;;;;;37.00;18.80;;;;;;;-2.05;83.91;101974.13;5056774;28;20036;-77
2022/03/04 05:52:16;;;;;;;36.03;18.55;;;;;;;-2.08;83.62;101966.31;5073418;28;20059;-76
2022/03/04 05:54:41;;;;;;;35.08;19.70;;;;;;;-2.12;83.86;101968.72;5056702;28;20388;-77
2022/03/04 05:57:07;;;;;;;38.47;18.63;;;;;;;-2.12;84.10;101984.06;5064135;28;20074;-76
2022/03/04 05:59:32;;;;;;;36.45;20.02;;;;;;;-2.13;84.03;101978.84;5065230;28;20028;-76
2022/03/04 06:01:57;;;;;;;40.35;19.80;;;;;;;-2.17;84.09;101982.09;5072212;28;20066;-76
2022/03/04 06:04:23;;;;;;;37.25;19.38;;;;;;;-2.20;83.92;101987.91;5059167;28;20040;-76
2022/03/04 06:06:48;;;;;;;43.25;19.10;;;;;;;-2.26;84.43;101987.63;5056278;28;20404;-76
2022/03/04 06:09:13;;;;;;;35.28;19.60;;;;;;;-2.25;84.60;101985.97;5053728;28;20028;-76
2022/03/04 06:11:39;;;;;;;36.38;19.52;;;;;;;-2.23;84.86;101985.22;5063478;28;20028;-76
2022/03/04 06:14:04;;;;;;;36.17;20.10;;;;;;;-2.23;84.94;101990.31;5069269;28;20028;-76
2022/03/04 06:16:30;;;;;;;37.72;19.40;;;;;;;-2.28;85.24;101990.94;5060462;28;20032;-76
2022/03/04 06:18:55;;;;;;;41.15;19.45;;;;;;;-2.27;85.19;101990.13;5052912;28;20032;-76
2022/03/04 06:21:21;;;;;;;38.78;19.73;;;;;;;-2.24;85.17;101996.25;5054359;28;20017;-76
2022/03/04 06:23:47;;;;;;;35.30;19.10;;;;;;;-2.26;85.55;101992.72;5062415;28;20028;-76
2022/03/04 06:26:13;;;;;;;38.67;19.50;;;;;;;-2.23;85.14;101995.44;5064397;28;20051;-76
2022/03/04 06:28:39;;;;;;;38.80;20.73;;;;;;;-2.22;84.63;101999.75;5069631;28;20086;-76
2022/03/04 06:31:04;;;;;;;38.95;19.98;;;;;;;-2.19;85.24;102002.47;5058085;28;20112;-76
2022/03/04 06:33:30;;;;;;;34.53;19.48;;;;;;;-2.14;85.28;102002.66;5059820;28;20547;-76
2022/03/04 06:35:58;;;;;;;40.78;20.08;;;;;;;-2.14;85.07;102000.97;5071403;28;20248;-76
2022/03/04 06:38:23;;;;;;;37.58;19.05;;;;;;;-2.18;85.12;101995.66;5073173;28;20121;-76
2022/03/04 06:40:50;;;;;;;40.00;19.60;;;;;;;-2.13;85.33;102002.75;5055156;28;20055;-76
2022/03/04 06:43:16;;;;;;;40.97;20.83;;;;;;;-2.15;85.13;102009.47;5068423;28;20623;-76
2022/03/04 06:45:42;;;;;;;39.15;19.40;;;;;;;-2.15;85.19;101998.38;5065447;28;20123;-76
2022/03/04 06:48:09;;;;;;;38.40;20.45;;;;;;;-2.12;85.41;102008.75;5068949;28;20032;-77
2022/03/04 06:50:34;;;;;;;40.15;19.65;;;;;;;-2.09;85.29;102006.31;5064618;28;20025;-76
2022/03/04 06:53:00;;;;;;;47.97;21.73;;;;;;;-2.03;85.17;102013.38;5054912;28;20025;-77
2022/03/04 06:55:25;;;;;;;39.88;21.17;;;;;;;-2.00;84.93;102018.63;5052961;28;20037;-76
2022/03/04 06:57:51;;;;;;;43.22;20.85;;;;;;;-1.95;85.30;102022.28;5061102;28;20100;-76
2022/03/04 07:00:17;;;;;;;39.65;20.30;;;;;;;-1.95;84.92;102019.72;5068811;28;20115;-76
2022/03/04 07:02:42;;;;;;;40.42;20.73;;;;;;;-1.92;84.57;102017.31;5071672;28;20102;-76
2022/03/04 07:05:08;;;;;;;37.75;20.27;;;;;;;-1.88;84.84;102027.75;5063825;28;20060;-76
2022/03/04 07:07:34;;;;;;;37.03;20.02;;;;;;;-1.79;84.67;102036.66;5059294;28;20199;-76
2022/03/04 07:10:00;;;;;;;35.88;19.20;;;;;;;-1.79;84.59;102032.41;5055481;28;20512;-76
2022/03/04 07:12:25;;;;;;;39.88;20.83;;;;;;;-1.67;84.25;102048.31;5052437;28;20051;-76
2022/03/04 07:14:51;;;;;;;38.38;19.38;;;;;;;-1.58;84.46;102055.53;5052797;28;20080;-76
2022/03/04 07:17:16;;;;;;;40.10;19.77;;;;;;;-1.52;84.04;102057.47;5064941;28;20415;-76
2022/03/04 07:19:41;;;;;;;39.55;20.27;;;;;;;-1.49;83.58;102060.19;5061916;28;20029;-76
2022/03/04 07:22:07;;;;;;;40.65;21.08;;;;;;;-1.43;83.58;102061.34;5031926;28;20057;-76
2022/03/04 07:24:32;;;;;;;39.47;20.98;;;;;;;-1.35;83.42;102059.09;5036693;28;20040;-76
2022/03/04 07:26:58;;;;;;;39.15;20.15;;;;;;;-1.28;82.84;102061.13;5035949;28;20025;-76
2022/03/04 07:29:24;;;;;;;38.75;20.40;;;;;;;-1.20;82.77;102052.13;5044887;28;20034;-76
2022/03/04 07:31:50;;;;;;;40.25;20.25;;;;;;;-1.15;82.94;102047.19;5050522;28;20032;-76
2022/03/04 07:34:15;;;;;;;37.85;20.42;;;;;;;-1.02;82.29;102058.84;5044190;28;20025;-76
2022/03/04 07:36:41;;;;;;;40.55;20.70;;;;;;;-0.97;81.86;102062.47;5047884;28;20021;-76
2022/03/04 07:39:07;;;;;;;45.80;20.70;;;;;;;-0.86;81.47;102063.81;5046765;28;20021;-77
2022/03/04 07:41:32;;;;;;;37.92;20.23;;;;;;;-0.80;81.48;102066.63;5047135;28;20112;-76
2022/03/04 07:43:59;;;;;;;39.53;20.42;;;;;;;-0.74;81.39;102051.53;5040669;28;20381;-77
2022/03/04 07:46:25;;;;;;;41.80;19.80;;;;;;;-0.66;81.35;102056.09;5036715;28;20104;-77
2022/03/04 07:48:50;;;;;;;44.67;21.10;;;;;;;-0.66;81.02;102036.47;5051744;28;20049;-76
2022/03/04 07:51:16;;;;;;;41.05;20.13;;;;;;;-0.54;80.82;102051.47;5050230;28;20031;-76
2022/03/04 07:53:41;;;;;;;45.50;20.65;;;;;;;-0.44;80.45;102050.16;5051653;28;20048;-77
2022/03/04 07:56:06;;;;;;;38.83;19.17;;;;;;;-0.37;80.54;102045.34;5051976;28;20055;-76
2022/03/04 07:58:32;;;;;;;41.08;20.23;;;;;;;-0.29;79.59;102046.53;5051023;28;20391;-76
2022/03/04 08:00:57;;;;;;;38.33;19.80;;;;;;;-0.14;78.73;102055.66;5052503;28;20456;-76
2022/03/04 08:03:22;;;;;;;37.35;18.98;;;;;;;-0.05;78.81;102050.88;5051524;28;20048;-77
2022/03/04 08:05:48;;;;;;;38.55;19.35;;;;;;;0.06;77.91;102058.97;5050887;28;20028;-76
2022/03/04 08:08:13;;;;;;;38.08;20.20;;;;;;;0.13;77.40;102056.75;5052419;28;20036;-76
2022/03/04 08:10:38;;;;;;;39.63;20.58;;;;;;;0.28;77.39;102059.00;5059877;28;20036;-76
2022/03/04 08:13:04;;;;;;;35.67;19.00;;;;;;;0.34;76.51;102050.66;5071514;28;20033;-76
2022/03/04 08:15:30;;;;;;;37.03;19.50;;;;;;;0.44;76.55;102052.75;5071682;28;20106;-76
2022/03/04 08:17:55;;;;;;;38.40;20.15;;;;;;;0.52;76.48;102063.28;5052848;28;20033;-76
2022/03/04 08:20:21;;;;;;;40.30;20.10;;;;;;;0.58;75.64;102046.44;5050915;28;20025;-77
2022/03/04 08:22:46;;;;;;;38.72;19.30;;;;;;;0.71;75.17;102063.16;5051333;28;20021;-76
2022/03/04 08:25:12;;;;;;;35.45;18.92;;;;;;;0.78;73.86;102059.13;5049611;28;20086;-76
2022/03/04 08:27:39;;;;;;;36.15;18.70;;;;;;;0.86;73.68;102061.16;5061606;28;20025;-75
2022/03/04 08:30:05;;;;;;;41.50;20.45;;;;;;;0.98;73.25;102057.25;5051189;28;20089;-76
2022/03/04 08:32:31;;;;;;;36.08;19.27;;;;;;;1.02;73.58;102056.56;5050815;28;20037;-76
2022/03/04 08:34:56;;;;;;;40.42;19.80;;;;;;;1.08;73.51;102059.31;5051322;28;20591;-77
2022/03/04 08:37:21;;;;;;;34.47;18.10;;;;;;;1.19;73.30;102067.41;5057913;28;20115;-75
2022/03/04 08:39:47;;;;;;;36.47;19.50;;;;;;;1.30;73.06;102072.06;5057458;28;20032;-76
2022/03/04 08:42:12;;;;;;;42.97;18.27;;;;;;;1.35;73.04;102072.25;5066294;28;20070;-76
2022/03/04 08:44:37;;;;;;;35.53;18.95;;;;;;;1.43;72.31;102064.78;5064965;28;20020;-76
2022/03/04 08:47:03;;;;;;;33.67;18.88;;;;;;;1.51;72.57;102065.94;5057002;28;20033;-76
2022/03/04 08:49:29;;;;;;;35.92;18.35;;;;;;;1.63;70.98;102072.38;5063561;28;20049;-76
2022/03/04 08:51:55;;;;;;;33.53;18.65;;;;;;;1.72;72.11;102071.75;5052204;28;20033;-76
2022/03/04 08:54:21;;;;;;;38.30;19.75;;;;;;;1.83;71.05;102087.53;5049853;28;20036;-76
2022/03/04 08:56:46;;;;;;;35.35;17.83;;;;;;;1.84;69.54;102071.28;5051423;28;20025;-76
2022/03/04 08:59:12;;;;;;;35.20;18.73;;;;;;;1.96;69.41;102073.38;5048722;28;20370;-76
2022/03/04 09:01:37;;;;;;;30.92;18.38;;;;;;;2.04;69.25;102080.50;5042280;28;20075;-76
2022/03/04 09:04:03;;;;;;;31.33;17.85;;;;;;;2.16;69.74;102085.19;5046918;28;20494;-76
2022/03/04 09:06:28;;;;;;;34.22;18.60;;;;;;;2.26;69.53;102079.47;5050678;28;20017;-77
2022/03/04 09:08:53;;;;;;;32.25;17.98;;;;;;;2.37;68.27;102077.22;5053843;28;20031;-76
2022/03/04 09:11:20;;;;;;;36.70;19.13;;;;;;;2.42;68.38;102075.66;5060762;28;20115;-77
2022/03/04 09:13:45;;;;;;;32.55;18.38;;;;;;;2.53;67.78;102073.41;5052012;28;20036;-75
2022/03/04 09:16:10;;;;;;;36.10;18.38;;;;;;;2.65;67.62;102081.47;5049870;28;20458;-77
2022/03/04 09:18:36;;;;;;;33.75;18.40;;;;;;;2.75;67.79;102083.50;5053770;28;20021;-77
2022/03/04 09:21:01;;;;;;;34.65;19.80;;;;;;;2.87;68.40;102082.94;5058136;28;20036;-77
2022/03/04 09:23:26;;;;;;;32.95;18.42;;;;;;;2.98;66.85;102067.81;5061853;28;20029;-77
2022/03/04 09:25:52;;;;;;;37.25;19.35;;;;;;;3.10;66.57;102065.53;5050496;28;20477;-77
2022/03/04 09:28:18;;;;;;;32.60;17.85;;;;;;;3.23;64.79;102066.72;5050434;28;20396;-77
2022/03/04 09:30:43;;;;;;;32.42;18.15;;;;;;;3.35;66.35;102069.63;5051166;28;20040;-76
2022/03/04 09:33:08;;;;;;;34.33;19.17;;;;;;;3.45;64.88;102066.47;5053959;28;20026;-76
2022/03/04 09:35:34;;;;;;;33.65;18.90;;;;;;;3.55;63.85;102057.25;5053820;28;20067;-77
2022/03/04 09:38:00;;;;;;;32.97;18.63;;;;;;;3.63;64.70;102048.00;5065431;28;20025;-75
2022/03/04 09:40:25;;;;;;;34.00;19.33;;;;;;;3.73;63.57;102043.94;5054090;28;20024;-77
2022/03/04 09:42:51;;;;;;;32.97;18.42;;;;;;;3.87;63.02;102055.44;5053465;28;20025;-78
2022/03/04 09:45:16;;;;;;;31.67;18.27;;;;;;;4.01;62.52;102049.72;5054139;28;20032;-76
2022/03/04 09:47:43;;;;;;;30.80;18.40;;;;;;;4.07;62.40;102057.63;5053386;28;20037;-76
2022/03/04 09:50:09;;;;;;;31.52;18.38;;;;;;;4.15;61.61;102056.97;5053784;28;20070;-76
2022/03/04 09:52:35;;;;;;;35.35;18.90;;;;;;;4.21;61.85;102056.19;5054063;28;20063;-77
2022/03/04 09:55:00;;;;;;;33.72;18.70;;;;;;;4.34;62.42;102057.34;5053790;28;20068;-76
2022/03/04 09:57:26;;;;;;;38.65;18.40;;;;;;;4.45;60.76;102061.06;5053466;28;20029;-77
2022/03/04 09:59:51;;;;;;;35.30;18.30;;;;;;;4.53;59.37;102053.44;5054031;28;20047;-76
2022/03/04 10:02:17;;;;;;;36.92;18.15;;;;;;;4.65;58.73;102061.47;5053923;28;20021;-76
2022/03/04 10:04:42;;;;;;;29.27;18.17;;;;;;;4.75;58.83;102049.59;5053100;28;20440;-76
2022/03/04 10:07:13;;;;;;;31.92;18.80;;;;;;;4.82;59.33;102049.75;5053976;28;20041;-76
2022/03/04 10:09:45;;;;;;;30.40;18.05;;;;;;;4.93;58.52;102050.81;5054002;28;20128;-76
2022/03/04 10:12:13;;;;;;;32.70;17.73;;;;;;;5.00;57.40;102046.63;5053041;28;20032;-76
2022/03/04 10:15:04;;;;;;;30.60;17.52;;;;;;;5.13;59.73;102051.19;5053637;28;20028;-76
2022/03/04 10:17:31;;;;;;;32.28;18.23;;;;;;;5.25;58.04;102042.78;5053470;28;20986;-77
2022/03/04 10:19:58;;;;;;;31.60;18.02;;;;;;;5.37;56.94;102053.34;5052616;28;20033;-76
2022/03/04 10:22:33;;;;;;;31.27;17.73;;;;;;;5.45;58.39;102052.59;5053397;28;20028;-76
2022/03/04 10:24:58;;;;;;;32.83;18.42;;;;;;;5.53;57.80;102057.06;5052783;28;20032;-76
2022/03/04 10:27:24;;;;;;;32.17;17.05;;;;;;;5.63;56.45;102063.25;5053426;28;20540;-76
2022/03/04 10:29:50;;;;;;;32.47;17.10;;;;;;;5.73;55.99;102059.97;5053400;28;20021;-76
2022/03/04 10:32:15;;;;;;;32.28;17.75;;;;;;;5.86;55.83;102066.22;5052590;28;20079;-76
2022/03/04 10:34:49;;;;;;;29.40;17.63;;;;;;;5.94;55.01;102067.22;5053190;28;20432;-76
2022/03/04 10:37:18;;;;;;;32.55;18.00;;;;;;;6.02;55.24;102064.75;5053367;28;20102;-76
2022/03/04 10:40:02;;;;;;;30.92;17.02;;;;;;;6.09;55.42;102064.00;5052488;28;20049;-76
2022/03/04 10:42:38;;;;;;;;;;;;;;;6.14;56.50;102058.88;5052904;28;20032;-77
2022/03/04 10:45:06;;;;;;;28.98;16.30;;;;;;;6.19;55.79;102042.56;5053379;28;19919;-76
2022/03/04 10:47:44;;;;;;;29.98;17.73;;;;;;;6.42;55.18;102057.53;5052246;28;20083;-77
2022/03/04 10:50:12;;;;;;;32.10;17.80;;;;;;;6.53;54.29;102049.03;5053231;28;20112;-77
2022/03/04 10:52:52;;;;;;;28.10;16.95;;;;;;;6.64;53.89;102048.28;5053026;28;20028;-76
2022/03/04 10:55:26;;;;;;;30.77;17.75;;;;;;;6.76;54.49;102051.91;5052029;28;20048;-77
2022/03/04 10:57:52;;;;;;;28.98;16.38;;;;;;;6.84;52.41;102038.19;5052912;28;20427;-77
2022/03/04 11:00:28;;;;;;;31.95;17.77;;;;;;;6.97;52.37;102046.09;5052149;28;20025;-76
2022/03/04 11:02:55;;;;;;;31.88;17.02;;;;;;;7.09;51.63;102037.56;5052716;28;20049;-77
2022/03/04 11:05:22;;;;;;;30.55;17.13;;;;;;;7.26;53.61;102040.34;5052690;28;20035;-77